createdAt,value
2018-07-01T00:02:03.934Z,20.90
2018-07-01T00:04:32.221Z,20.80
2018-07-01T00:07:00.485Z,20.80
2018-07-01T00:09:28.743Z,20.70
2018-07-01T00:11:57.500Z,20.70
2018-07-01T00:14:25.758Z,20.70
2018-07-01T00:16:54.026Z,20.80
2018-07-01T00:21:50.276Z,20.70
2018-07-01T00:24:18.592Z,20.60
2018-07-01T00:26:46.878Z,20.60
2018-07-01T00:29:15.155Z,20.60
2018-07-01T00:31:43.442Z,20.70
2018-07-01T00:34:11.683Z,20.60
2018-07-01T00:36:39.973Z,20.60
2018-07-01T00:39:10.692Z,20.60
2018-07-01T00:41:38.952Z,20.60
2018-07-01T00:44:07.855Z,20.50
2018-07-01T00:46:36.743Z,20.60
2018-07-01T00:49:05.936Z,20.50
2018-07-01T00:51:34.732Z,20.50
2018-07-01T00:54:03.624Z,20.40
2018-07-01T00:56:31.965Z,20.30
2018-07-01T00:59:00.287Z,20.40
2018-07-01T01:01:28.566Z,20.20
2018-07-01T01:03:56.855Z,20.10
2018-07-01T01:06:25.158Z,20.10
2018-07-01T01:08:53.447Z,20.10
2018-07-01T01:11:21.736Z,20.20
2018-07-01T01:13:50.000Z,20.10
2018-07-01T01:18:46.310Z,20.20
2018-07-01T01:21:14.610Z,20.10
2018-07-01T01:23:43.038Z,20.00
2018-07-01T01:26:11.333Z,20.10
2018-07-01T01:28:39.634Z,20.00
2018-07-01T01:31:07.881Z,20.00
2018-07-01T01:33:36.212Z,20.00
2018-07-01T01:36:04.543Z,19.90
2018-07-01T01:38:34.945Z,19.90
2018-07-01T01:41:12.962Z,19.80
2018-07-01T01:43:44.843Z,19.80
2018-07-01T01:46:31.271Z,19.80
2018-07-01T01:49:03.725Z,19.70
2018-07-01T01:51:42.541Z,19.70
2018-07-01T01:54:15.260Z,19.60
2018-07-01T01:59:26.228Z,19.60
2018-07-01T02:02:05.001Z,19.50
2018-07-01T02:04:42.259Z,19.40
2018-07-01T02:09:43.519Z,19.30
2018-07-01T02:15:05.628Z,19.20
2018-07-01T02:17:36.441Z,19.20
2018-07-01T02:20:04.908Z,19.10
2018-07-01T02:22:38.326Z,19.10
2018-07-01T02:25:10.569Z,19.00
2018-07-01T02:27:38.879Z,19.10
2018-07-01T02:30:07.160Z,19.10
2018-07-01T02:32:35.426Z,19.00
2018-07-01T02:35:03.714Z,19.00
2018-07-01T02:37:31.999Z,19.00
2018-07-01T02:40:00.291Z,19.00
2018-07-01T02:42:28.537Z,18.90
2018-07-01T02:44:56.872Z,18.90
2018-07-01T02:47:25.119Z,18.90
2018-07-01T02:49:53.772Z,18.80
2018-07-01T02:52:22.008Z,18.90
2018-07-01T02:54:50.256Z,18.90
2018-07-01T02:57:18.541Z,18.80
2018-07-01T02:59:46.779Z,18.80
2018-07-01T03:02:15.193Z,18.70
2018-07-01T03:04:43.472Z,18.60
2018-07-01T03:07:11.725Z,18.60
2018-07-01T03:09:40.578Z,18.50
2018-07-01T03:12:08.832Z,18.30
2018-07-01T03:14:37.083Z,18.30
2018-07-01T03:17:05.411Z,18.40
2018-07-01T03:19:33.651Z,18.50
2018-07-01T03:24:29.907Z,18.40
2018-07-01T03:26:58.171Z,18.40
2018-07-01T03:29:26.463Z,18.40
2018-07-01T03:31:54.819Z,18.30
2018-07-01T03:34:23.058Z,18.20
2018-07-01T03:36:51.323Z,18.10
2018-07-01T03:39:19.579Z,18.00
2018-07-01T03:41:47.848Z,18.00
2018-07-01T03:44:16.142Z,18.00
2018-07-01T03:46:44.390Z,18.00
2018-07-01T03:51:40.739Z,18.00
2018-07-01T03:54:09.012Z,18.00
2018-07-01T03:56:37.288Z,17.90
2018-07-01T03:59:06.542Z,18.00
2018-07-01T04:01:34.815Z,18.00
2018-07-01T04:04:03.074Z,18.00
2018-07-01T04:06:31.367Z,18.10
2018-07-01T04:08:59.635Z,18.00
2018-07-01T04:11:27.860Z,18.00
2018-07-01T04:13:56.158Z,18.00
2018-07-01T04:16:24.408Z,18.00
2018-07-01T04:18:52.659Z,18.00
2018-07-01T04:21:20.938Z,18.00
2018-07-01T04:23:49.263Z,18.00
2018-07-01T04:26:17.541Z,18.00
2018-07-01T04:28:45.765Z,18.00
2018-07-01T04:31:14.143Z,18.00
2018-07-01T04:33:42.376Z,18.00
2018-07-01T04:36:10.674Z,18.10
2018-07-01T04:38:38.951Z,18.10
2018-07-01T04:41:07.301Z,18.20
2018-07-01T04:43:35.575Z,18.20
2018-07-01T04:46:03.819Z,18.30
2018-07-01T04:48:32.134Z,18.50
2018-07-01T04:51:00.430Z,18.50
2018-07-01T04:53:28.684Z,18.50
2018-07-01T04:55:57.056Z,18.50
2018-07-01T04:58:25.342Z,18.60
2018-07-01T05:00:53.585Z,18.60
2018-07-01T05:03:21.894Z,18.60
2018-07-01T05:05:50.181Z,18.60
2018-07-01T05:08:18.443Z,18.60
2018-07-01T05:10:47.045Z,18.70
2018-07-01T05:13:15.290Z,18.80
2018-07-01T05:15:43.803Z,18.90
2018-07-01T05:18:12.076Z,18.80
2018-07-01T05:20:40.339Z,18.90
2018-07-01T05:23:08.561Z,19.00
2018-07-01T05:25:36.839Z,19.00
2018-07-01T05:28:05.118Z,19.10
2018-07-01T05:30:33.371Z,19.00
2018-07-01T05:33:01.633Z,19.10
2018-07-01T05:35:29.890Z,19.20
2018-07-01T05:37:58.215Z,19.30
2018-07-01T05:40:26.505Z,19.30
2018-07-01T05:42:54.728Z,19.40
2018-07-01T05:45:22.971Z,19.40
2018-07-01T05:47:51.271Z,19.40
2018-07-01T05:50:19.570Z,19.50
2018-07-01T05:52:47.850Z,19.60
2018-07-01T05:55:16.132Z,19.50
2018-07-01T05:57:44.407Z,19.60
2018-07-01T06:00:12.660Z,19.70
2018-07-01T06:02:40.916Z,19.80
2018-07-01T06:05:09.304Z,19.90
2018-07-01T06:07:37.669Z,19.80
2018-07-01T06:10:05.969Z,19.90
2018-07-01T06:12:34.227Z,20.00
2018-07-01T06:15:02.523Z,20.10
2018-07-01T06:17:30.847Z,20.20
2018-07-01T06:19:59.109Z,20.30
2018-07-01T06:22:27.459Z,20.40
2018-07-01T06:24:56.778Z,20.50
2018-07-01T06:27:25.043Z,20.60
2018-07-01T06:29:53.410Z,20.70
2018-07-01T06:32:22.004Z,20.70
2018-07-01T06:34:50.316Z,20.80
2018-07-01T06:37:18.584Z,21.10
2018-07-01T06:39:46.878Z,21.10
2018-07-01T06:44:43.150Z,21.40
2018-07-01T06:47:11.399Z,21.60
2018-07-01T06:52:07.812Z,22.50
2018-07-01T06:54:36.076Z,22.80
2018-07-01T06:57:04.424Z,22.90
2018-07-01T06:59:32.702Z,23.20
2018-07-01T07:02:00.997Z,23.40
2018-07-01T07:04:29.268Z,23.40
2018-07-01T07:06:57.540Z,23.70
2018-07-01T07:09:25.736Z,24.10
2018-07-01T07:11:54.090Z,24.30
2018-07-01T07:14:23.947Z,24.60
2018-07-01T07:16:52.727Z,24.90
2018-07-01T07:19:21.126Z,25.40
2018-07-01T07:21:49.463Z,25.30
2018-07-01T07:24:17.772Z,25.40
2018-07-01T07:26:46.015Z,25.30
2018-07-01T07:29:14.296Z,25.30
2018-07-01T07:31:42.659Z,25.80
2018-07-01T07:34:10.958Z,26.40
2018-07-01T07:36:39.227Z,26.30
2018-07-01T07:39:09.027Z,26.60
2018-07-01T07:41:37.608Z,26.70
2018-07-01T07:44:06.408Z,26.90
2018-07-01T07:46:35.855Z,27.30
2018-07-01T07:49:04.604Z,27.30
2018-07-01T07:51:33.692Z,27.60
2018-07-01T07:54:08.917Z,27.80
2018-07-01T07:56:37.300Z,27.70
2018-07-01T07:59:05.689Z,27.80
2018-07-01T08:01:33.981Z,27.80
2018-07-01T08:04:02.247Z,27.90
2018-07-01T08:06:30.579Z,28.20
2018-07-01T08:08:58.863Z,28.40
2018-07-01T08:11:27.111Z,28.40
2018-07-01T08:13:55.356Z,29.10
2018-07-01T08:16:25.098Z,29.60
2018-07-01T08:21:21.357Z,30.10
2018-07-01T08:23:49.672Z,30.50
2018-07-01T08:26:18.014Z,30.10
2018-07-01T08:28:46.314Z,30.80
2018-07-01T08:31:14.666Z,31.00
2018-07-01T08:33:43.249Z,30.80
2018-07-01T08:36:12.071Z,30.70
2018-07-01T08:38:40.668Z,30.70
2018-07-01T08:41:08.944Z,31.10
2018-07-01T08:43:37.300Z,30.90
2018-07-01T08:46:05.582Z,31.50
2018-07-01T08:48:33.941Z,31.60
2018-07-01T08:51:02.503Z,32.80
2018-07-01T08:53:30.792Z,32.40
2018-07-01T08:55:59.306Z,32.40
2018-07-01T08:58:27.626Z,32.50
2018-07-01T09:00:55.968Z,32.40
2018-07-01T09:03:24.270Z,32.10
2018-07-01T09:05:52.553Z,31.30
2018-07-01T09:08:20.853Z,32.10
2018-07-01T09:10:49.463Z,32.50
2018-07-01T09:13:17.720Z,32.00
2018-07-01T09:15:46.008Z,32.70
2018-07-01T09:18:14.325Z,33.00
2018-07-01T09:20:42.836Z,32.80
2018-07-01T09:23:11.280Z,32.70
2018-07-01T09:25:40.116Z,32.80
2018-07-01T09:28:08.817Z,33.10
2018-07-01T09:30:40.124Z,33.70
2018-07-01T09:33:09.846Z,34.90
2018-07-01T09:35:39.460Z,34.20
2018-07-01T09:40:35.728Z,34.40
2018-07-01T09:43:05.073Z,35.10
2018-07-01T09:45:33.342Z,34.90
2018-07-01T09:48:01.630Z,34.90
2018-07-01T09:50:29.975Z,35.00
2018-07-01T09:52:58.639Z,34.70
2018-07-01T09:55:26.932Z,35.00
2018-07-01T09:57:55.193Z,35.50
2018-07-01T10:00:23.425Z,36.10
2018-07-01T10:02:51.727Z,36.00
2018-07-01T10:05:19.956Z,35.90
2018-07-01T10:07:48.265Z,35.80
2018-07-01T10:10:16.454Z,35.90
2018-07-01T10:12:44.697Z,36.20
2018-07-01T10:15:13.033Z,37.10
2018-07-01T10:17:41.295Z,36.80
2018-07-01T10:20:09.557Z,36.80
2018-07-01T10:22:37.780Z,37.90
2018-07-01T10:25:06.075Z,38.30
2018-07-01T10:27:34.342Z,37.90
2018-07-01T10:30:02.600Z,38.10
2018-07-01T10:32:30.928Z,38.50
2018-07-01T10:34:59.188Z,39.30
2018-07-01T10:37:27.474Z,38.80
2018-07-01T10:39:55.818Z,38.90
2018-07-01T10:42:24.146Z,39.30
2018-07-01T10:44:52.402Z,39.20
2018-07-01T10:47:20.691Z,38.30
2018-07-01T10:52:17.287Z,37.40
2018-07-01T10:54:45.596Z,38.30
2018-07-01T10:57:13.911Z,38.70
2018-07-01T10:59:42.231Z,39.70
2018-07-01T11:02:10.531Z,40.30
2018-07-01T11:04:38.825Z,38.50
2018-07-01T11:07:07.073Z,38.60
2018-07-01T11:09:35.337Z,38.10
2018-07-01T11:12:03.590Z,39.20
2018-07-01T11:14:31.861Z,39.90
2018-07-01T11:17:00.133Z,39.70
2018-07-01T11:19:28.386Z,40.10
2018-07-01T11:21:56.672Z,41.00
2018-07-01T11:24:24.952Z,39.90
2018-07-01T11:26:53.424Z,39.00
2018-07-01T11:29:21.640Z,39.30
2018-07-01T11:31:49.868Z,38.60
2018-07-01T11:36:46.148Z,38.70
2018-07-01T11:39:14.403Z,38.80
2018-07-01T11:41:42.696Z,38.80
2018-07-01T11:44:10.944Z,39.40
2018-07-01T11:46:39.230Z,39.50
2018-07-01T11:49:07.538Z,38.80
2018-07-01T11:51:35.802Z,39.70
2018-07-01T11:54:04.089Z,39.30
2018-07-01T11:56:32.396Z,39.80
2018-07-01T11:59:00.708Z,40.40
2018-07-01T12:03:57.010Z,40.80
2018-07-01T12:06:25.298Z,40.20
2018-07-01T12:08:53.576Z,40.80
2018-07-01T12:11:21.867Z,40.20
2018-07-01T12:13:50.062Z,40.20
2018-07-01T12:16:18.318Z,39.40
2018-07-01T12:18:46.612Z,39.80
2018-07-01T12:21:14.860Z,39.50
2018-07-01T12:23:43.280Z,40.20
2018-07-01T12:26:11.430Z,39.60
2018-07-01T12:28:39.821Z,39.00
2018-07-01T12:31:08.081Z,38.90
2018-07-01T12:36:04.357Z,38.80
2018-07-01T12:38:32.622Z,39.10
2018-07-01T12:41:00.905Z,39.50
2018-07-01T12:43:29.161Z,39.20
2018-07-01T12:45:57.747Z,38.40
2018-07-01T12:48:26.038Z,38.20
2018-07-01T12:50:54.283Z,38.60
2018-07-01T12:55:50.604Z,39.10
2018-07-01T12:58:18.904Z,39.10
2018-07-01T13:00:47.132Z,38.60
2018-07-01T13:03:16.346Z,37.90
2018-07-01T13:05:44.699Z,36.90
2018-07-01T13:08:13.076Z,35.80
2018-07-01T13:10:41.340Z,34.50
2018-07-01T13:13:09.672Z,34.00
2018-07-01T13:15:38.725Z,33.40
2018-07-01T13:18:07.049Z,32.80
2018-07-01T13:20:35.806Z,32.80
2018-07-01T13:23:04.092Z,32.30
2018-07-01T13:25:32.313Z,32.40
2018-07-01T13:30:29.012Z,31.80
2018-07-01T13:32:57.324Z,31.70
2018-07-01T13:35:25.627Z,31.50
2018-07-01T13:37:54.136Z,31.50
2018-07-01T13:40:22.409Z,31.40
2018-07-01T13:42:50.715Z,31.30
2018-07-01T13:45:18.880Z,31.50
2018-07-01T13:47:47.192Z,31.70
2018-07-01T13:50:15.428Z,32.00
2018-07-01T13:52:43.693Z,32.00
2018-07-01T13:55:11.919Z,31.80
2018-07-01T13:57:41.168Z,31.70
2018-07-01T14:00:09.612Z,31.60
2018-07-01T14:02:37.968Z,31.30
2018-07-01T14:05:06.261Z,31.10
2018-07-01T14:07:35.162Z,31.10
2018-07-01T14:10:03.520Z,31.00
2018-07-01T14:12:31.788Z,30.80
2018-07-01T14:15:00.087Z,30.80
2018-07-01T14:19:56.359Z,30.60
2018-07-01T14:24:52.621Z,30.40
2018-07-01T14:27:20.957Z,30.20
2018-07-01T14:29:49.322Z,30.50
2018-07-01T14:32:17.503Z,30.60
2018-07-01T14:34:45.795Z,30.80
2018-07-01T14:37:14.047Z,30.60
2018-07-01T14:39:42.327Z,30.50
2018-07-01T14:42:10.580Z,30.50
2018-07-01T14:44:38.998Z,30.40
2018-07-01T14:47:07.280Z,30.60
2018-07-01T14:49:35.633Z,30.60
2018-07-01T14:54:32.046Z,30.50
2018-07-01T14:57:00.296Z,30.50
2018-07-01T14:59:28.740Z,30.30
2018-07-01T15:04:25.045Z,30.10
2018-07-01T15:06:53.419Z,29.80
2018-07-01T15:09:21.663Z,29.80
2018-07-01T15:11:49.992Z,30.10
2018-07-01T15:14:18.292Z,30.10
2018-07-01T15:16:46.562Z,30.20
2018-07-01T15:19:14.824Z,30.40
2018-07-01T15:21:43.076Z,30.10
2018-07-01T15:24:11.354Z,30.00
2018-07-01T15:26:39.946Z,30.00
2018-07-01T15:29:08.344Z,30.30
2018-07-01T15:31:36.886Z,30.30
2018-07-01T15:34:05.237Z,31.00
2018-07-01T15:36:33.539Z,31.10
2018-07-01T15:39:02.837Z,31.10
2018-07-01T15:41:31.238Z,31.10
2018-07-01T15:43:59.536Z,30.80
2018-07-01T15:46:27.850Z,30.50
2018-07-01T15:48:56.116Z,30.20
2018-07-01T15:51:24.380Z,30.00
2018-07-01T15:56:20.752Z,29.50
2018-07-01T15:58:49.008Z,29.50
2018-07-01T16:01:17.276Z,29.50
2018-07-01T16:03:45.544Z,29.50
2018-07-01T16:06:13.786Z,29.30
2018-07-01T16:08:42.035Z,29.20
2018-07-01T16:11:10.436Z,29.10
2018-07-01T16:13:38.715Z,29.00
2018-07-01T16:16:07.054Z,28.90
2018-07-01T16:21:03.698Z,28.90
2018-07-01T16:26:05.579Z,29.00
2018-07-01T16:28:41.571Z,28.90
2018-07-01T16:31:09.948Z,28.80
2018-07-01T16:33:38.268Z,28.70
2018-07-01T16:36:06.515Z,28.70
2018-07-01T16:38:34.819Z,28.60
2018-07-01T16:41:03.165Z,28.60
2018-07-01T16:43:31.424Z,28.60
2018-07-01T16:46:03.758Z,28.60
2018-07-01T16:48:32.458Z,28.70
2018-07-01T16:51:00.983Z,28.70
2018-07-01T16:53:29.396Z,28.60
2018-07-01T16:55:57.879Z,28.50
2018-07-01T16:58:26.148Z,28.50
2018-07-01T17:00:54.464Z,28.50
2018-07-01T17:03:22.956Z,28.50
2018-07-01T17:05:51.530Z,28.40
2018-07-01T17:08:19.767Z,28.40
2018-07-01T17:10:48.073Z,28.40
2018-07-01T17:13:16.360Z,28.30
2018-07-01T17:15:44.600Z,28.30
2018-07-01T17:18:12.950Z,28.20
2018-07-01T17:20:41.555Z,28.10
2018-07-01T17:23:10.232Z,28.00
2018-07-01T17:25:58.252Z,28.00
2018-07-01T17:28:26.727Z,28.00
2018-07-01T17:31:00.444Z,27.90
2018-07-01T17:33:29.623Z,27.80
2018-07-01T17:35:58.615Z,27.70
2018-07-01T17:38:26.987Z,27.80
2018-07-01T17:40:58.963Z,27.70
2018-07-01T17:46:18.518Z,27.70
2018-07-01T17:48:46.925Z,27.70
2018-07-01T17:51:15.226Z,27.60
2018-07-01T17:53:51.365Z,27.60
2018-07-01T17:56:19.600Z,27.60
2018-07-01T18:01:16.067Z,27.40
2018-07-01T18:03:44.354Z,27.50
2018-07-01T18:06:13.091Z,27.40
2018-07-01T18:08:41.733Z,27.40
2018-07-01T18:11:10.307Z,27.20
2018-07-01T18:13:39.106Z,27.20
2018-07-01T18:16:08.043Z,27.20
2018-07-01T18:18:36.693Z,27.20
2018-07-01T18:21:05.211Z,27.00
2018-07-01T18:24:02.968Z,27.00
2018-07-01T18:26:03.377Z,27.00
2018-07-01T18:33:28.422Z,26.70
2018-07-01T18:35:56.936Z,26.60
2018-07-01T18:38:25.535Z,26.60
2018-07-01T18:40:54.117Z,26.60
2018-07-01T18:43:22.608Z,26.60
2018-07-01T18:45:51.182Z,26.50
2018-07-01T18:48:20.159Z,26.60
2018-07-01T18:50:48.671Z,26.50
2018-07-01T18:53:17.236Z,26.60
2018-07-01T18:55:45.795Z,26.50
2018-07-01T18:58:14.418Z,26.50
2018-07-01T19:00:42.943Z,26.50
2018-07-01T19:03:11.466Z,26.40
2018-07-01T19:05:39.977Z,26.40
2018-07-01T19:08:08.533Z,26.20
2018-07-01T19:10:37.042Z,26.10
2018-07-01T19:13:05.523Z,26.10
2018-07-01T19:15:34.036Z,26.10
2018-07-01T19:18:02.535Z,26.00
2018-07-01T19:20:31.052Z,25.80
2018-07-01T19:23:00.693Z,25.80
2018-07-01T19:25:29.483Z,25.60
2018-07-01T19:27:58.161Z,25.50
2018-07-01T19:32:55.278Z,25.50
2018-07-01T19:35:23.858Z,25.40
2018-07-01T19:37:52.509Z,25.30
2018-07-01T19:40:21.065Z,25.20
2018-07-01T19:42:49.638Z,25.10
2018-07-01T19:45:18.174Z,25.10
2018-07-01T19:47:46.697Z,25.00
2018-07-01T19:50:15.351Z,24.90
2018-07-01T19:52:44.081Z,24.80
2018-07-01T19:55:12.609Z,24.70
2018-07-01T19:57:41.143Z,24.60
2018-07-01T20:00:09.704Z,24.50
2018-07-01T20:02:38.275Z,24.40
2018-07-01T20:05:06.824Z,24.50
2018-07-01T20:07:35.326Z,24.50
2018-07-01T20:10:03.877Z,24.30
2018-07-01T20:15:00.757Z,24.10
2018-07-01T20:17:29.466Z,24.00
2018-07-01T20:19:57.917Z,23.90
2018-07-01T20:22:26.312Z,23.80
2018-07-01T20:24:54.651Z,23.80
2018-07-01T20:27:22.980Z,23.70
2018-07-01T20:32:19.308Z,23.60
2018-07-01T20:34:47.628Z,23.50
2018-07-01T20:37:15.949Z,23.50
2018-07-01T20:39:44.213Z,23.40
2018-07-01T20:42:12.611Z,23.40
2018-07-01T20:44:40.867Z,23.30
2018-07-01T20:47:09.088Z,23.20
2018-07-01T20:49:37.311Z,23.10
2018-07-01T20:52:05.768Z,23.00
2018-07-01T20:54:34.141Z,22.80
2018-07-01T20:57:02.402Z,22.80
2018-07-01T20:59:30.670Z,22.70
2018-07-01T21:01:58.997Z,22.70
2018-07-01T21:04:27.261Z,22.60
2018-07-01T21:06:55.561Z,22.60
2018-07-01T21:09:23.882Z,22.60
2018-07-01T21:11:52.535Z,22.50
2018-07-01T21:14:20.814Z,22.50
2018-07-01T21:16:49.095Z,22.40
2018-07-01T21:19:17.418Z,22.40
2018-07-01T21:21:45.688Z,22.50
2018-07-01T21:24:14.027Z,22.30
2018-07-01T21:26:42.349Z,22.30
2018-07-01T21:29:11.034Z,22.30
2018-07-01T21:31:39.321Z,22.20
2018-07-01T21:34:07.615Z,22.20
2018-07-01T21:36:35.893Z,22.10
2018-07-01T21:39:06.380Z,22.20
2018-07-01T21:41:34.666Z,22.00
2018-07-01T21:44:02.990Z,22.00
2018-07-01T21:46:31.283Z,21.90
2018-07-01T21:48:59.704Z,21.80
2018-07-01T21:51:28.014Z,21.80
2018-07-01T21:53:56.335Z,21.80
2018-07-01T21:56:24.735Z,21.70
2018-07-01T21:58:53.158Z,21.50
2018-07-01T22:01:21.485Z,21.50
2018-07-01T22:03:49.727Z,21.40
2018-07-01T22:06:18.969Z,21.40
2018-07-01T22:08:47.189Z,21.30
2018-07-01T22:11:57.968Z,21.30
2018-07-01T22:14:32.334Z,21.20
2018-07-01T22:17:01.001Z,21.20
2018-07-01T22:19:29.560Z,21.20
2018-07-01T22:21:58.307Z,21.10
2018-07-01T22:24:27.964Z,21.00
2018-07-01T22:26:56.214Z,21.00
2018-07-01T22:29:24.424Z,21.00
2018-07-01T22:31:52.666Z,20.90
2018-07-01T22:34:21.275Z,20.80
2018-07-01T22:36:49.864Z,20.80
2018-07-01T22:39:20.183Z,20.80
2018-07-01T22:41:49.782Z,20.80
2018-07-01T22:44:17.995Z,20.70
2018-07-01T22:46:46.851Z,20.70
2018-07-01T22:49:15.063Z,20.50
2018-07-01T22:51:43.331Z,20.50
2018-07-01T22:54:11.570Z,20.50
2018-07-01T22:56:39.813Z,20.50
2018-07-01T22:59:08.081Z,20.50
2018-07-01T23:01:44.834Z,20.40
2018-07-01T23:04:13.043Z,20.40
2018-07-01T23:06:41.382Z,20.40
2018-07-01T23:09:09.580Z,20.40
2018-07-01T23:11:37.781Z,20.40
2018-07-01T23:14:05.998Z,20.40
2018-07-01T23:16:34.215Z,20.30
2018-07-01T23:19:02.457Z,20.20
2018-07-01T23:21:30.684Z,20.20
2018-07-01T23:26:26.892Z,20.10
2018-07-01T23:28:55.094Z,20.10
2018-07-01T23:31:23.304Z,20.00
2018-07-01T23:33:51.516Z,19.90
2018-07-01T23:36:19.728Z,19.90
2018-07-01T23:38:47.974Z,19.80
2018-07-01T23:41:16.201Z,19.80
2018-07-01T23:43:44.432Z,19.80
2018-07-01T23:46:12.702Z,19.70
2018-07-01T23:48:41.006Z,19.70
2018-07-01T23:51:09.284Z,19.70
2018-07-01T23:53:37.561Z,19.60
2018-07-01T23:56:06.067Z,19.60
2018-07-01T23:58:34.342Z,19.60
